Startpagina
METAR-TAF:

METAR-TAF

Vliegvelden :

Vliegveld de Kooy

Den Helder, Nederland

breedte: 52-55N, lengte: 004-47E, hoogte: 0 m

Actueel weer

Dit bericht is 23 minuten geleden gemaakt, om 21:36 UTC
Wind 7 kt uit het oostnoordoosten
Temperatuur 6°C
Vochtigheid 93%
Druk 1029 hPa
Zicht: 6000 m
nevel

METAR: EHKD 162136Z AUTO 07007KT 6000 BR NCD 06/05 Q1029 WHT

Tijdstip: 22:59 (21:59 UTC)

Verwachting

Dit bericht is 4 uur en het 29 minuten geleden gemaakt, om 17:30 UTC
Verwachting geldig van 16 om 18 UTC tot 17 om 06 UTC
Wind 7 kt uit het oosten
Zicht: 6000 m
nevel
Kans 40% :
Tijdelijke
van 16 om 18 UTC tot 16 om 21 UTC
Zicht: 2000 m
Verspreide wolken op 200 ft
Gebroken wolken op 300 ft

TAF: EHKD 161730Z 1618/1706 10007KT 6000 BR PROB40 TEMPO 1618/1621 2000 SCT002 BKN003

Waarnemingen en weersverwachtingen van meer dan 4000 vliegvelden (METAR en TAF).

De beschikbare stations zijn de gele en rode punten op de kaart.

Ga met uw muis naar het station om de naam te zien.

Klik dan om waarnemingen en weersverwachtingen te zien.

kaart wijzigen: klik op de groene knoppen met een zwart kruis om in te zoomen, op de groene knop met een streepje om uit te zoomen of op de groene pijlen voor aangrenzende kaarten.


METAR-TAF: